sensor_id;sensor_type;location;lat;lon;timestamp;pressure;altitude;pressure_sealevel;temperature;humidity
13387;BME280;6763;48.524;9.044;2023-05-07T00:01:37;97671.69;;;18.16;51.52
13387;BME280;6763;48.524;9.044;2023-05-07T00:04:02;97664.84;;;18.14;51.78
13387;BME280;6763;48.524;9.044;2023-05-07T00:06:29;97659.00;;;18.09;51.49
13387;BME280;6763;48.524;9.044;2023-05-07T00:08:55;97661.75;;;18.06;51.92
13387;BME280;6763;48.524;9.044;2023-05-07T00:11:21;97658.31;;;18.05;51.73
13387;BME280;6763;48.524;9.044;2023-05-07T00:13:49;97655.00;;;18.02;51.93
13387;BME280;6763;48.524;9.044;2023-05-07T00:16:15;97660.22;;;18.02;51.73
13387;BME280;6763;48.524;9.044;2023-05-07T00:18:40;97647.22;;;18.00;51.62
13387;BME280;6763;48.524;9.044;2023-05-07T00:21:05;97657.53;;;18.03;51.64
13387;BME280;6763;48.524;9.044;2023-05-07T00:23:31;97654.16;;;18.01;51.76
13387;BME280;6763;48.524;9.044;2023-05-07T00:25:56;97658.38;;;18.04;51.46
13387;BME280;6763;48.524;9.044;2023-05-07T00:28:22;97652.28;;;18.03;51.96
13387;BME280;6763;48.524;9.044;2023-05-07T00:30:47;97653.22;;;18.02;51.85
13387;BME280;6763;48.524;9.044;2023-05-07T00:33:12;97653.13;;;18.04;52.30
13387;BME280;6763;48.524;9.044;2023-05-07T00:35:38;97652.53;;;17.98;52.56
13387;BME280;6763;48.524;9.044;2023-05-07T00:38:03;97659.69;;;17.95;52.58
13387;BME280;6763;48.524;9.044;2023-05-07T00:40:29;97647.06;;;17.86;52.71
13387;BME280;6763;48.524;9.044;2023-05-07T00:42:54;97644.69;;;17.81;52.77
13387;BME280;6763;48.524;9.044;2023-05-07T00:45:26;97637.88;;;17.77;52.72
13387;BME280;6763;48.524;9.044;2023-05-07T00:48:02;97638.81;;;17.76;52.92
13387;BME280;6763;48.524;9.044;2023-05-07T00:50:29;97636.34;;;17.73;52.89
13387;BME280;6763;48.524;9.044;2023-05-07T00:52:55;97639.72;;;17.75;52.84
13387;BME280;6763;48.524;9.044;2023-05-07T00:55:22;97643.22;;;17.76;53.00
13387;BME280;6763;48.524;9.044;2023-05-07T00:57:49;97638.13;;;17.73;53.12
13387;BME280;6763;48.524;9.044;2023-05-07T01:00:15;97644.25;;;17.72;53.38
13387;BME280;6763;48.524;9.044;2023-05-07T01:02:41;97647.97;;;17.68;53.24
13387;BME280;6763;48.524;9.044;2023-05-07T01:05:12;97639.50;;;17.63;53.34
13387;BME280;6763;48.524;9.044;2023-05-07T01:07:40;97643.81;;;17.64;53.65
13387;BME280;6763;48.524;9.044;2023-05-07T01:10:07;97629.25;;;17.58;53.52
13387;BME280;6763;48.524;9.044;2023-05-07T01:12:35;97634.50;;;17.58;53.41
13387;BME280;6763;48.524;9.044;2023-05-07T01:15:02;97634.41;;;17.60;53.35
13387;BME280;6763;48.524;9.044;2023-05-07T01:17:28;97633.69;;;17.56;53.69
13387;BME280;6763;48.524;9.044;2023-05-07T01:19:53;97634.69;;;17.54;53.74
13387;BME280;6763;48.524;9.044;2023-05-07T01:22:38;97638.28;;;17.51;53.39
13387;BME280;6763;48.524;9.044;2023-05-07T01:25:05;97640.28;;;17.46;53.96
13387;BME280;6763;48.524;9.044;2023-05-07T01:27:31;97644.88;;;17.41;54.01
13387;BME280;6763;48.524;9.044;2023-05-07T01:29:59;97655.44;;;17.40;53.59
13387;BME280;6763;48.524;9.044;2023-05-07T01:32:48;97643.47;;;17.34;54.10
13387;BME280;6763;48.524;9.044;2023-05-07T01:35:19;97632.16;;;17.33;53.86
13387;BME280;6763;48.524;9.044;2023-05-07T01:37:47;97642.78;;;17.30;54.27
13387;BME280;6763;48.524;9.044;2023-05-07T01:40:13;97635.91;;;17.28;54.23
13387;BME280;6763;48.524;9.044;2023-05-07T01:42:39;97643.00;;;17.26;54.40
13387;BME280;6763;48.524;9.044;2023-05-07T01:45:06;97640.59;;;17.21;54.30
13387;BME280;6763;48.524;9.044;2023-05-07T01:47:32;97636.28;;;17.20;54.17
13387;BME280;6763;48.524;9.044;2023-05-07T01:49:58;97641.59;;;17.19;54.38
13387;BME280;6763;48.524;9.044;2023-05-07T01:52:24;97632.97;;;17.17;54.24
13387;BME280;6763;48.524;9.044;2023-05-07T01:54:50;97634.81;;;17.15;54.41
13387;BME280;6763;48.524;9.044;2023-05-07T01:57:15;97632.34;;;17.12;54.50
13387;BME280;6763;48.524;9.044;2023-05-07T01:59:40;97635.03;;;17.10;54.26
13387;BME280;6763;48.524;9.044;2023-05-07T02:02:06;97632.50;;;17.09;54.71
13387;BME280;6763;48.524;9.044;2023-05-07T02:04:31;97628.94;;;17.10;54.35
13387;BME280;6763;48.524;9.044;2023-05-07T02:06:57;97628.03;;;17.11;54.32
13387;BME280;6763;48.524;9.044;2023-05-07T02:09:22;97624.44;;;17.13;54.50
13387;BME280;6763;48.524;9.044;2023-05-07T02:11:48;97620.97;;;17.13;54.51
13387;BME280;6763;48.524;9.044;2023-05-07T02:14:13;97625.34;;;17.12;54.58
13387;BME280;6763;48.524;9.044;2023-05-07T02:16:39;97628.88;;;17.11;54.79
13387;BME280;6763;48.524;9.044;2023-05-07T02:19:04;97629.94;;;17.07;54.89
13387;BME280;6763;48.524;9.044;2023-05-07T02:21:30;97629.31;;;17.02;55.01
13387;BME280;6763;48.524;9.044;2023-05-07T02:23:55;97634.75;;;16.98;54.62
13387;BME280;6763;48.524;9.044;2023-05-07T02:26:21;97634.84;;;16.96;54.99
13387;BME280;6763;48.524;9.044;2023-05-07T02:28:46;97634.97;;;16.93;55.16
13387;BME280;6763;48.524;9.044;2023-05-07T02:31:13;97643.88;;;16.89;55.09
13387;BME280;6763;48.524;9.044;2023-05-07T02:33:38;97638.00;;;16.84;55.42
13387;BME280;6763;48.524;9.044;2023-05-07T02:36:11;97639.97;;;16.79;55.36
13387;BME280;6763;48.524;9.044;2023-05-07T02:38:36;97644.56;;;16.74;55.47
13387;BME280;6763;48.524;9.044;2023-05-07T02:41:02;97645.56;;;16.71;55.33
13387;BME280;6763;48.524;9.044;2023-05-07T02:43:27;97642.22;;;16.68;55.22
13387;BME280;6763;48.524;9.044;2023-05-07T02:46:07;97639.69;;;16.66;55.64
13387;BME280;6763;48.524;9.044;2023-05-07T02:48:33;97642.44;;;16.63;55.73
13387;BME280;6763;48.524;9.044;2023-05-07T02:50:59;97639.91;;;16.62;55.68
13387;BME280;6763;48.524;9.044;2023-05-07T02:53:25;97644.50;;;16.57;55.93
13387;BME280;6763;48.524;9.044;2023-05-07T02:55:52;97632.50;;;16.51;55.89
13387;BME280;6763;48.524;9.044;2023-05-07T02:58:17;97631.00;;;16.46;55.59
13387;BME280;6763;48.524;9.044;2023-05-07T03:00:43;97641.72;;;16.40;55.69
13387;BME280;6763;48.524;9.044;2023-05-07T03:03:08;97635.84;;;16.35;55.92
13387;BME280;6763;48.524;9.044;2023-05-07T03:05:33;97638.59;;;16.32;56.17
13387;BME280;6763;48.524;9.044;2023-05-07T03:07:59;97637.91;;;16.28;56.15
13387;BME280;6763;48.524;9.044;2023-05-07T03:10:24;97639.75;;;16.26;56.06
13387;BME280;6763;48.524;9.044;2023-05-07T03:12:49;97644.25;;;16.23;55.88
13387;BME280;6763;48.524;9.044;2023-05-07T03:15:15;97642.59;;;16.20;55.98
13387;BME280;6763;48.524;9.044;2023-05-07T03:17:40;97648.81;;;16.18;55.98
13387;BME280;6763;48.524;9.044;2023-05-07T03:20:07;97647.06;;;16.18;55.81
13387;BME280;6763;48.524;9.044;2023-05-07T03:22:32;97650.47;;;16.19;55.94
13387;BME280;6763;48.524;9.044;2023-05-07T03:24:58;97645.34;;;16.17;55.90
13387;BME280;6763;48.524;9.044;2023-05-07T03:27:23;97641.84;;;16.18;56.31
13387;BME280;6763;48.524;9.044;2023-05-07T03:29:49;97630.44;;;16.19;56.03
13387;BME280;6763;48.524;9.044;2023-05-07T03:32:14;97639.09;;;16.21;55.83
13387;BME280;6763;48.524;9.044;2023-05-07T03:34:39;97633.00;;;16.21;56.14
13387;BME280;6763;48.524;9.044;2023-05-07T03:37:05;97636.41;;;16.23;56.20
13387;BME280;6763;48.524;9.044;2023-05-07T03:39:30;97633.72;;;16.24;56.39
13387;BME280;6763;48.524;9.044;2023-05-07T03:41:57;97637.19;;;16.25;56.53
13387;BME280;6763;48.524;9.044;2023-05-07T03:44:23;97630.41;;;16.21;56.44
13387;BME280;6763;48.524;9.044;2023-05-07T03:46:48;97638.38;;;16.18;56.47
13387;BME280;6763;48.524;9.044;2023-05-07T03:49:13;97636.66;;;16.17;56.46
13387;BME280;6763;48.524;9.044;2023-05-07T03:51:39;97634.97;;;16.16;56.31
13387;BME280;6763;48.524;9.044;2023-05-07T03:54:04;97634.25;;;16.12;56.51
13387;BME280;6763;48.524;9.044;2023-05-07T03:56:29;97636.94;;;16.10;56.62
13387;BME280;6763;48.524;9.044;2023-05-07T03:58:56;97631.84;;;16.07;56.38
13387;BME280;6763;48.524;9.044;2023-05-07T04:01:21;97636.28;;;16.05;56.31
13387;BME280;6763;48.524;9.044;2023-05-07T04:03:47;97637.00;;;16.09;56.17
13387;BME280;6763;48.524;9.044;2023-05-07T04:06:12;97642.28;;;16.07;56.58
13387;BME280;6763;48.524;9.044;2023-05-07T04:08:37;97637.91;;;16.08;56.38
13387;BME280;6763;48.524;9.044;2023-05-07T04:11:03;97643.91;;;16.10;56.24
13387;BME280;6763;48.524;9.044;2023-05-07T04:13:29;97641.31;;;16.10;56.28
13387;BME280;6763;48.524;9.044;2023-05-07T04:15:55;97643.84;;;16.11;56.30
13387;BME280;6763;48.524;9.044;2023-05-07T04:18:21;97643.72;;;16.14;56.52
13387;BME280;6763;48.524;9.044;2023-05-07T04:20:47;97643.63;;;16.16;56.46
13387;BME280;6763;48.524;9.044;2023-05-07T04:23:14;97641.88;;;16.17;56.06
13387;BME280;6763;48.524;9.044;2023-05-07T04:25:39;97653.19;;;16.17;56.50
13387;BME280;6763;48.524;9.044;2023-05-07T04:28:05;97655.00;;;16.15;56.41
13387;BME280;6763;48.524;9.044;2023-05-07T04:30:33;97650.78;;;16.12;56.29
13387;BME280;6763;48.524;9.044;2023-05-07T04:32:58;97650.81;;;16.11;56.15
13387;BME280;6763;48.524;9.044;2023-05-07T04:35:23;97652.59;;;16.10;56.48
13387;BME280;6763;48.524;9.044;2023-05-07T04:37:49;97649.84;;;16.13;56.52
13387;BME280;6763;48.524;9.044;2023-05-07T04:40:14;97649.84;;;16.34;56.81
13387;BME280;6763;48.524;9.044;2023-05-07T04:42:41;97658.06;;;16.65;55.71
13387;BME280;6763;48.524;9.044;2023-05-07T04:45:06;97650.56;;;16.95;54.60
13387;BME280;6763;48.524;9.044;2023-05-07T04:47:33;97656.94;;;17.26;54.18
13387;BME280;6763;48.524;9.044;2023-05-07T04:49:59;97658.53;;;17.48;53.81
13387;BME280;6763;48.524;9.044;2023-05-07T04:52:24;97654.44;;;17.61;53.37
13387;BME280;6763;48.524;9.044;2023-05-07T04:54:50;97653.38;;;17.82;52.55
13387;BME280;6763;48.524;9.044;2023-05-07T04:57:15;97655.75;;;18.04;51.65
13387;BME280;6763;48.524;9.044;2023-05-07T04:59:42;97661.78;;;18.23;50.81
13387;BME280;6763;48.524;9.044;2023-05-07T05:02:08;97670.63;;;18.37;50.37
13387;BME280;6763;48.524;9.044;2023-05-07T05:04:33;97668.22;;;18.50;50.35
13387;BME280;6763;48.524;9.044;2023-05-07T05:06:58;97678.91;;;18.63;50.05
13387;BME280;6763;48.524;9.044;2023-05-07T05:09:27;97680.31;;;18.70;49.78
13387;BME280;6763;48.524;9.044;2023-05-07T05:11:52;97685.16;;;18.77;49.48
13387;BME280;6763;48.524;9.044;2023-05-07T05:14:18;97678.63;;;18.84;49.86
13387;BME280;6763;48.524;9.044;2023-05-07T05:16:43;97687.41;;;19.00;49.20
13387;BME280;6763;48.524;9.044;2023-05-07T05:19:08;97686.56;;;19.15;49.05
13387;BME280;6763;48.524;9.044;2023-05-07T05:21:34;97691.31;;;19.25;48.52
13387;BME280;6763;48.524;9.044;2023-05-07T05:23:59;97684.03;;;19.30;48.70
13387;BME280;6763;48.524;9.044;2023-05-07T05:26:25;97686.31;;;19.36;48.77
13387;BME280;6763;48.524;9.044;2023-05-07T05:28:50;97687.88;;;19.40;48.11
13387;BME280;6763;48.524;9.044;2023-05-07T05:31:16;97695.19;;;19.33;48.14
13387;BME280;6763;48.524;9.044;2023-05-07T05:33:43;97700.59;;;19.30;47.97
13387;BME280;6763;48.524;9.044;2023-05-07T05:36:11;97696.63;;;19.23;48.31
13387;BME280;6763;48.524;9.044;2023-05-07T05:38:38;97688.16;;;19.18;48.27
13387;BME280;6763;48.524;9.044;2023-05-07T05:41:03;97696.31;;;19.13;48.42
13387;BME280;6763;48.524;9.044;2023-05-07T05:43:29;97690.09;;;19.14;48.88
13387;BME280;6763;48.524;9.044;2023-05-07T05:45:55;97692.56;;;19.17;48.46
13387;BME280;6763;48.524;9.044;2023-05-07T05:48:21;97692.13;;;19.09;48.19
13387;BME280;6763;48.524;9.044;2023-05-07T05:50:47;97695.31;;;18.99;48.30
13387;BME280;6763;48.524;9.044;2023-05-07T05:53:12;97689.47;;;18.94;48.69
13387;BME280;6763;48.524;9.044;2023-05-07T05:55:38;97692.81;;;18.97;48.70
13387;BME280;6763;48.524;9.044;2023-05-07T05:58:06;97693.50;;;19.01;48.64
13387;BME280;6763;48.524;9.044;2023-05-07T06:00:32;97695.09;;;19.03;48.46
13387;BME280;6763;48.524;9.044;2023-05-07T06:02:58;97701.00;;;19.07;48.54
13387;BME280;6763;48.524;9.044;2023-05-07T06:05:23;97686.28;;;19.04;48.76
13387;BME280;6763;48.524;9.044;2023-05-07T06:07:48;97692.06;;;19.11;48.59
13387;BME280;6763;48.524;9.044;2023-05-07T06:10:14;97703.16;;;19.16;48.52
13387;BME280;6763;48.524;9.044;2023-05-07T06:12:39;97701.97;;;19.22;48.60
13387;BME280;6763;48.524;9.044;2023-05-07T06:15:06;97707.47;;;19.33;48.50
13387;BME280;6763;48.524;9.044;2023-05-07T06:17:31;97701.00;;;19.40;48.41
13387;BME280;6763;48.524;9.044;2023-05-07T06:19:57;97701.06;;;19.54;48.63
13387;BME280;6763;48.524;9.044;2023-05-07T06:22:22;97701.66;;;19.74;48.20
13387;BME280;6763;48.524;9.044;2023-05-07T06:24:47;97699.75;;;19.92;48.11
13387;BME280;6763;48.524;9.044;2023-05-07T06:27:13;97702.84;;;20.14;48.09
13387;BME280;6763;48.524;9.044;2023-05-07T06:29:38;97699.28;;;20.31;47.38
13387;BME280;6763;48.524;9.044;2023-05-07T06:32:08;97701.56;;;20.51;46.95
13387;BME280;6763;48.524;9.044;2023-05-07T06:34:35;97703.38;;;20.65;46.96
13387;BME280;6763;48.524;9.044;2023-05-07T06:37:01;97704.41;;;20.76;46.54
13387;BME280;6763;48.524;9.044;2023-05-07T06:39:27;97703.75;;;20.87;46.76
13387;BME280;6763;48.524;9.044;2023-05-07T06:41:53;97703.75;;;21.01;46.60
13387;BME280;6763;48.524;9.044;2023-05-07T06:44:18;97708.94;;;21.17;46.20
13387;BME280;6763;48.524;9.044;2023-05-07T06:46:44;97713.44;;;21.29;45.91
13387;BME280;6763;48.524;9.044;2023-05-07T06:49:10;97701.22;;;21.42;45.34
13387;BME280;6763;48.524;9.044;2023-05-07T06:51:35;97711.16;;;21.51;45.33
13387;BME280;6763;48.524;9.044;2023-05-07T06:54:01;97710.56;;;21.60;44.98
13387;BME280;6763;48.524;9.044;2023-05-07T06:56:26;97715.34;;;21.68;44.74
13387;BME280;6763;48.524;9.044;2023-05-07T06:58:52;97697.53;;;21.71;44.69
13387;BME280;6763;48.524;9.044;2023-05-07T07:01:17;97695.56;;;21.75;44.70
13387;BME280;6763;48.524;9.044;2023-05-07T07:03:43;97688.94;;;21.82;44.48
13387;BME280;6763;48.524;9.044;2023-05-07T07:06:08;97692.59;;;21.93;44.27
13387;BME280;6763;48.524;9.044;2023-05-07T07:08:33;97703.19;;;22.06;44.31
13387;BME280;6763;48.524;9.044;2023-05-07T07:10:59;97696.03;;;22.20;44.27
13387;BME280;6763;48.524;9.044;2023-05-07T07:13:25;97694.94;;;22.37;44.13
13387;BME280;6763;48.524;9.044;2023-05-07T07:15:51;97694.22;;;22.60;43.40
13387;BME280;6763;48.524;9.044;2023-05-07T07:18:17;97695.28;;;22.83;43.09
13387;BME280;6763;48.524;9.044;2023-05-07T07:20:42;97697.09;;;22.95;41.86
13387;BME280;6763;48.524;9.044;2023-05-07T07:23:09;97696.97;;;23.09;41.77
13387;BME280;6763;48.524;9.044;2023-05-07T07:25:34;97700.00;;;23.28;41.42
13387;BME280;6763;48.524;9.044;2023-05-07T07:28:00;97687.81;;;23.51;40.87
13387;BME280;6763;48.524;9.044;2023-05-07T07:30:26;97686.06;;;23.75;40.08
13387;BME280;6763;48.524;9.044;2023-05-07T07:32:51;97690.34;;;23.89;39.39
13387;BME280;6763;48.524;9.044;2023-05-07T07:35:17;97694.50;;;24.04;39.28
13387;BME280;6763;48.524;9.044;2023-05-07T07:37:43;97695.22;;;24.06;38.47
13387;BME280;6763;48.524;9.044;2023-05-07T07:40:10;97692.78;;;24.03;38.94
13387;BME280;6763;48.524;9.044;2023-05-07T07:42:36;97677.06;;;24.01;39.09
13387;BME280;6763;48.524;9.044;2023-05-07T07:45:02;97684.13;;;24.01;39.25
13387;BME280;6763;48.524;9.044;2023-05-07T07:47:27;97679.78;;;24.00;39.43
13387;BME280;6763;48.524;9.044;2023-05-07T07:49:53;97682.13;;;24.04;39.64
13387;BME280;6763;48.524;9.044;2023-05-07T07:52:18;97682.66;;;24.10;39.59
13387;BME280;6763;48.524;9.044;2023-05-07T07:54:44;97689.38;;;24.14;39.46
13387;BME280;6763;48.524;9.044;2023-05-07T07:57:09;97698.66;;;24.19;39.33
13387;BME280;6763;48.524;9.044;2023-05-07T07:59:35;97696.66;;;24.23;39.43
13387;BME280;6763;48.524;9.044;2023-05-07T08:02:00;97692.31;;;24.22;39.54
13387;BME280;6763;48.524;9.044;2023-05-07T08:04:25;97695.88;;;24.21;39.50
13387;BME280;6763;48.524;9.044;2023-05-07T08:06:51;97688.53;;;24.13;39.56
13387;BME280;6763;48.524;9.044;2023-05-07T08:09:16;97687.09;;;24.09;39.76
13387;BME280;6763;48.524;9.044;2023-05-07T08:11:42;97691.72;;;24.05;40.15
13387;BME280;6763;48.524;9.044;2023-05-07T08:14:07;97686.44;;;24.05;40.02
13387;BME280;6763;48.524;9.044;2023-05-07T08:16:32;97686.34;;;24.07;40.15
13387;BME280;6763;48.524;9.044;2023-05-07T08:18:58;97692.97;;;24.13;40.16
13387;BME280;6763;48.524;9.044;2023-05-07T08:21:23;97688.19;;;24.18;39.71
13387;BME280;6763;48.524;9.044;2023-05-07T08:23:48;97690.94;;;24.16;39.84
13387;BME280;6763;48.524;9.044;2023-05-07T08:26:14;97691.44;;;24.21;40.31
13387;BME280;6763;48.524;9.044;2023-05-07T08:28:39;97692.66;;;24.28;39.98
13387;BME280;6763;48.524;9.044;2023-05-07T08:31:05;97693.16;;;24.33;40.04
13387;BME280;6763;48.524;9.044;2023-05-07T08:33:30;97687.19;;;24.42;39.58
13387;BME280;6763;48.524;9.044;2023-05-07T08:35:56;97685.16;;;24.57;39.14
13387;BME280;6763;48.524;9.044;2023-05-07T08:38:22;97686.03;;;24.68;38.16
13387;BME280;6763;48.524;9.044;2023-05-07T08:40:47;97684.19;;;24.82;38.21
13387;BME280;6763;48.524;9.044;2023-05-07T08:43:13;97683.94;;;24.96;37.63
13387;BME280;6763;48.524;9.044;2023-05-07T08:45:40;97687.81;;;25.03;37.56
13387;BME280;6763;48.524;9.044;2023-05-07T08:48:12;97686.84;;;25.15;37.74
13387;BME280;6763;48.524;9.044;2023-05-07T08:50:39;97681.16;;;25.31;36.93
13387;BME280;6763;48.524;9.044;2023-05-07T08:53:05;97687.81;;;25.47;36.89
13387;BME280;6763;48.524;9.044;2023-05-07T08:55:31;97686.44;;;25.64;35.97
13387;BME280;6763;48.524;9.044;2023-05-07T08:57:58;97692.06;;;25.81;36.07
13387;BME280;6763;48.524;9.044;2023-05-07T09:00:24;97687.53;;;26.04;35.95
13387;BME280;6763;48.524;9.044;2023-05-07T09:02:49;97685.84;;;26.35;35.45
13387;BME280;6763;48.524;9.044;2023-05-07T09:05:15;97683.59;;;26.72;35.20
13387;BME280;6763;48.524;9.044;2023-05-07T09:07:40;97677.34;;;27.03;34.57
13387;BME280;6763;48.524;9.044;2023-05-07T09:10:06;97676.47;;;27.33;33.87
13387;BME280;6763;48.524;9.044;2023-05-07T09:12:32;97677.56;;;27.60;33.68
13387;BME280;6763;48.524;9.044;2023-05-07T09:14:58;97671.44;;;27.89;33.23
13387;BME280;6763;48.524;9.044;2023-05-07T09:17:24;97665.06;;;28.10;32.83
13387;BME280;6763;48.524;9.044;2023-05-07T09:19:49;97664.78;;;28.33;32.57
13387;BME280;6763;48.524;9.044;2023-05-07T09:22:15;97659.97;;;28.55;32.06
13387;BME280;6763;48.524;9.044;2023-05-07T09:24:47;97658.00;;;28.76;31.29
13387;BME280;6763;48.524;9.044;2023-05-07T09:27:12;97656.84;;;28.88;31.16
13387;BME280;6763;48.524;9.044;2023-05-07T09:29:38;97650.22;;;29.02;31.00
13387;BME280;6763;48.524;9.044;2023-05-07T09:32:10;97646.75;;;29.19;30.73
13387;BME280;6763;48.524;9.044;2023-05-07T09:34:35;97645.56;;;29.41;30.55
13387;BME280;6763;48.524;9.044;2023-05-07T09:37:05;97645.53;;;29.68;30.59
13387;BME280;6763;48.524;9.044;2023-05-07T09:39:44;97641.53;;;29.99;29.81
13387;BME280;6763;48.524;9.044;2023-05-07T09:42:10;97645.88;;;30.18;29.24
13387;BME280;6763;48.524;9.044;2023-05-07T09:44:37;97648.09;;;30.40;29.50
13387;BME280;6763;48.524;9.044;2023-05-07T09:47:05;97643.66;;;30.75;29.21
13387;BME280;6763;48.524;9.044;2023-05-07T09:49:34;97636.66;;;30.99;28.68
13387;BME280;6763;48.524;9.044;2023-05-07T09:52:01;97646.34;;;31.00;28.38
13387;BME280;6763;48.524;9.044;2023-05-07T09:54:27;97639.69;;;31.04;28.33
13387;BME280;6763;48.524;9.044;2023-05-07T09:56:56;97635.06;;;30.89;28.25
13387;BME280;6763;48.524;9.044;2023-05-07T09:59:22;97636.28;;;30.68;28.40
13387;BME280;6763;48.524;9.044;2023-05-07T10:01:48;97641.25;;;30.63;28.97
13387;BME280;6763;48.524;9.044;2023-05-07T10:04:14;97631.13;;;30.75;28.15
13387;BME280;6763;48.524;9.044;2023-05-07T10:06:40;97631.28;;;30.91;28.62
13387;BME280;6763;48.524;9.044;2023-05-07T10:09:07;97624.50;;;31.13;28.22
13387;BME280;6763;48.524;9.044;2023-05-07T10:11:36;97622.88;;;31.20;27.91
13387;BME280;6763;48.524;9.044;2023-05-07T10:14:03;97613.25;;;31.35;27.93
13387;BME280;6763;48.524;9.044;2023-05-07T10:16:32;97602.16;;;31.64;27.52
13387;BME280;6763;48.524;9.044;2023-05-07T10:19:02;97605.53;;;31.90;26.88
13387;BME280;6763;48.524;9.044;2023-05-07T10:21:29;97601.38;;;32.04;26.87
13387;BME280;6763;48.524;9.044;2023-05-07T10:24:21;97597.38;;;32.16;26.55
13387;BME280;6763;48.524;9.044;2023-05-07T10:26:48;97597.72;;;32.45;26.72
13387;BME280;6763;48.524;9.044;2023-05-07T10:29:21;97602.19;;;32.77;26.47
13387;BME280;6763;48.524;9.044;2023-05-07T10:34:39;97594.56;;;33.13;25.65
13387;BME280;6763;48.524;9.044;2023-05-07T10:37:06;97596.84;;;33.24;25.84
13387;BME280;6763;48.524;9.044;2023-05-07T10:39:32;97591.03;;;33.51;25.62
13387;BME280;6763;48.524;9.044;2023-05-07T10:42:07;97588.94;;;33.69;24.65
13387;BME280;6763;48.524;9.044;2023-05-07T10:44:33;97595.84;;;33.63;23.81
13387;BME280;6763;48.524;9.044;2023-05-07T10:47:10;97588.31;;;33.59;24.59
13387;BME280;6763;48.524;9.044;2023-05-07T10:50:21;97597.63;;;33.71;24.02
13387;BME280;6763;48.524;9.044;2023-05-07T10:52:23;97581.72;;;33.69;23.30
13387;BME280;6763;48.524;9.044;2023-05-07T10:57:47;97579.13;;;33.45;24.10
13387;BME280;6763;48.524;9.044;2023-05-07T11:05:29;97579.53;;;34.18;23.24
13387;BME280;6763;48.524;9.044;2023-05-07T11:10:21;97581.66;;;34.23;22.15
13387;BME280;6763;48.524;9.044;2023-05-07T11:15:14;97566.06;;;34.56;21.97
13387;BME280;6763;48.524;9.044;2023-05-07T11:17:56;97563.69;;;34.90;21.53
13387;BME280;6763;48.524;9.044;2023-05-07T11:20:49;97568.75;;;35.29;21.45
13387;BME280;6763;48.524;9.044;2023-05-07T11:26:09;97579.72;;;35.27;20.67
13387;BME280;6763;48.524;9.044;2023-05-07T11:28:42;97575.84;;;34.86;21.18
13387;BME280;6763;48.524;9.044;2023-05-07T11:31:09;97568.81;;;34.48;21.58
13387;BME280;6763;48.524;9.044;2023-05-07T11:33:35;97569.28;;;34.14;21.88
13387;BME280;6763;48.524;9.044;2023-05-07T11:36:05;97583.75;;;33.90;21.69
13387;BME280;6763;48.524;9.044;2023-05-07T11:38:37;97581.31;;;33.72;22.16
13387;BME280;6763;48.524;9.044;2023-05-07T11:41:02;97570.84;;;33.55;22.25
13387;BME280;6763;48.524;9.044;2023-05-07T11:43:30;97576.03;;;33.26;22.60
13387;BME280;6763;48.524;9.044;2023-05-07T11:46:05;97570.59;;;32.95;22.87
13387;BME280;6763;48.524;9.044;2023-05-07T11:48:31;97569.88;;;32.70;23.33
13387;BME280;6763;48.524;9.044;2023-05-07T11:51:02;97563.19;;;32.42;23.45
13387;BME280;6763;48.524;9.044;2023-05-07T11:53:34;97574.78;;;32.18;23.91
13387;BME280;6763;48.524;9.044;2023-05-07T11:56:00;97573.91;;;31.93;24.24
13387;BME280;6763;48.524;9.044;2023-05-07T11:58:31;97557.47;;;31.56;24.67
13387;BME280;6763;48.524;9.044;2023-05-07T12:00:56;97568.41;;;31.29;25.67
13387;BME280;6763;48.524;9.044;2023-05-07T12:03:21;97567.50;;;31.04;25.69
13387;BME280;6763;48.524;9.044;2023-05-07T12:05:47;97569.88;;;30.82;26.29
13387;BME280;6763;48.524;9.044;2023-05-07T12:08:17;97574.25;;;30.57;26.23
13387;BME280;6763;48.524;9.044;2023-05-07T12:10:44;97575.06;;;30.32;26.87
13387;BME280;6763;48.524;9.044;2023-05-07T12:13:20;97588.75;;;30.11;27.26
13387;BME280;6763;48.524;9.044;2023-05-07T12:15:46;97593.19;;;29.85;28.18
13387;BME280;6763;48.524;9.044;2023-05-07T12:18:12;97589.47;;;29.50;28.75
13387;BME280;6763;48.524;9.044;2023-05-07T12:20:38;97604.25;;;29.18;29.52
13387;BME280;6763;48.524;9.044;2023-05-07T12:23:04;97605.34;;;28.88;30.34
13387;BME280;6763;48.524;9.044;2023-05-07T12:25:31;97611.47;;;28.61;30.77
13387;BME280;6763;48.524;9.044;2023-05-07T12:27:57;97623.13;;;28.41;31.43
13387;BME280;6763;48.524;9.044;2023-05-07T12:30:24;97624.00;;;28.22;32.12
13387;BME280;6763;48.524;9.044;2023-05-07T12:32:55;97633.56;;;28.06;32.15
13387;BME280;6763;48.524;9.044;2023-05-07T12:35:30;97635.19;;;27.88;32.96
13387;BME280;6763;48.524;9.044;2023-05-07T12:37:57;97643.56;;;27.74;33.15
13387;BME280;6763;48.524;9.044;2023-05-07T12:40:34;97658.53;;;27.55;33.45
13387;BME280;6763;48.524;9.044;2023-05-07T12:43:00;97675.88;;;27.20;33.14
13387;BME280;6763;48.524;9.044;2023-05-07T12:45:26;97669.72;;;26.89;33.26
13387;BME280;6763;48.524;9.044;2023-05-07T12:47:51;97672.44;;;26.57;34.09
13387;BME280;6763;48.524;9.044;2023-05-07T12:50:17;97676.69;;;26.28;34.65
13387;BME280;6763;48.524;9.044;2023-05-07T12:52:43;97687.53;;;26.04;34.95
13387;BME280;6763;48.524;9.044;2023-05-07T12:55:14;97712.06;;;25.85;35.50
13387;BME280;6763;48.524;9.044;2023-05-07T12:57:41;97714.03;;;25.72;35.95
13387;BME280;6763;48.524;9.044;2023-05-07T13:00:07;97724.31;;;25.55;36.95
13387;BME280;6763;48.524;9.044;2023-05-07T13:02:34;97732.34;;;25.20;37.83
13387;BME280;6763;48.524;9.044;2023-05-07T13:05:00;97759.19;;;24.69;39.21
13387;BME280;6763;48.524;9.044;2023-05-07T13:07:26;97762.41;;;24.03;42.42
13387;BME280;6763;48.524;9.044;2023-05-07T13:09:51;97767.84;;;23.40;45.37
13387;BME280;6763;48.524;9.044;2023-05-07T13:12:17;97779.56;;;22.86;47.67
13387;BME280;6763;48.524;9.044;2023-05-07T13:14:42;97787.13;;;22.39;49.81
13387;BME280;6763;48.524;9.044;2023-05-07T13:17:07;97791.88;;;22.07;51.68
13387;BME280;6763;48.524;9.044;2023-05-07T13:19:33;97784.22;;;21.76;52.75
13387;BME280;6763;48.524;9.044;2023-05-07T13:21:58;97785.84;;;21.50;53.40
13387;BME280;6763;48.524;9.044;2023-05-07T13:24:24;97786.69;;;21.22;54.27
13387;BME280;6763;48.524;9.044;2023-05-07T13:26:49;97799.34;;;21.01;54.95